Time;durP1;ratioP1;P1;durP2;ratioP2;P2;SDS_P1;SDS_P2;PMS_P1;PMS_P2;Temp;Humidity;BMP_temperature;BMP_pressure;BME280_temperature;BME280_humidity;BME280_pressure;Samples;Min_cycle;Max_cycle;Signal;HPM_P1;HPM_P2
2021/12/24 00:00:56;;;;;;;;;;;;;;;-2.39;100.00;100808.63;5114051;27;19969;-71
2021/12/24 00:03:22;;;;;;;;;;;;;;;-2.30;100.00;100810.59;5132454;27;20006;-71
2021/12/24 00:05:50;;;;;;;;;;;;;;;-2.34;100.00;100798.84;5131852;27;19950;-71
2021/12/24 00:08:18;;;;;;;;;;;;;;;-2.53;100.00;100799.78;5113951;28;19936;-71
2021/12/24 00:10:58;;;;;;;;;;;;;;;-2.46;100.00;100806.69;5113988;28;19915;-71
2021/12/24 00:13:34;;;;;;;;;;;;;;;-2.84;100.00;100811.84;5132295;28;20406;-70
2021/12/24 00:16:26;;;;;;;;;;;;;;;-2.74;100.00;100813.91;5132326;28;19911;-70
2021/12/24 00:35:22;;;;;;;;;;;;;;;-2.42;100.00;100786.13;5132433;28;19922;-71
2021/12/24 00:37:48;;;;;;;;;;;;;;;-2.50;100.00;100784.13;5132268;28;19919;-71
2021/12/24 00:40:21;;;;;;;;;;;;;;;-2.58;100.00;100793.81;5132606;28;19915;-71
2021/12/24 00:42:57;;;;;;;;;;;;;;;-2.80;100.00;100779.72;5113925;28;20370;-71
2021/12/24 00:45:30;;;;;;;;;;;;;;;-2.59;100.00;100777.16;5131993;28;19919;-71
2021/12/24 00:47:57;;;;;;;;;;;;;;;-2.90;100.00;100784.25;5113615;28;20371;-71
2021/12/24 00:50:26;;;;;;;;;;;;;;;-2.59;100.00;100768.88;5113820;28;19919;-71
2021/12/24 00:53:04;;;;;;;;;;;;;;;-2.69;100.00;100760.19;5131953;28;19925;-71
2021/12/24 00:55:30;;;;;;;;;;;;;;;-2.77;100.00;100766.53;5113544;28;19915;-71
2021/12/24 00:57:59;;;;;;;;;;;;;;;-2.63;100.00;100758.78;5131722;28;19919;-71
2021/12/24 01:00:29;;;;;;;;;;;;;;;-2.72;100.00;100755.13;5113516;28;20616;-71
2021/12/24 01:03:08;;;;;;;;;;;;;;;-2.96;100.00;100755.06;5132111;28;19960;-71
2021/12/24 01:05:35;;;;;;;;;;;;;;;-2.77;100.00;100754.09;5132107;28;20048;-71
2021/12/24 01:08:03;;;;;;;;;;;;;;;-2.78;100.00;100758.22;5131814;28;19911;-71
2021/12/24 01:10:34;;;;;;;;;;;;;;;-2.75;100.00;100755.84;5113502;28;19915;-71
2021/12/24 01:12:59;;;;;;;;;;;;;;;-2.87;100.00;100754.53;5113586;28;19915;-71
2021/12/24 01:15:28;;;;;;;;;;;;;;;-2.75;100.00;100750.88;5131796;27;20322;-71
2021/12/24 01:18:14;;;;;;;;;;;;;;;-2.82;100.00;100740.66;5135887;27;19911;-72
2021/12/24 01:20:48;;;;;;;;;;;;;;;-2.85;100.00;100736.41;5117133;27;19912;-71
2021/12/24 01:25:46;;;;;;;;;;;;;;;-2.75;100.00;100726.00;5135709;27;19915;-70
2021/12/24 01:44:35;;;;;;;;;;;;;;;-2.53;100.00;100699.41;5135098;27;19958;-71
2021/12/24 01:47:04;;;;;;;;;;;;;;;-2.92;100.00;100697.19;5116466;27;19973;-71
2021/12/24 01:49:32;;;;;;;;;;;;;;;-2.34;100.00;100687.69;5116502;27;19954;-70
2021/12/24 01:52:04;;;;;;;;;;;;;;;-2.50;100.00;100678.00;5134849;27;20383;-71
2021/12/24 01:54:30;;;;;;;;;;;;;;;-2.33;100.00;100676.94;5134948;27;20013;-71
2021/12/24 01:56:58;;;;;;;;;;;;;;;-2.39;100.00;100676.72;5116538;27;20387;-71
2021/12/24 01:59:25;;;;;;;;;;;;;;;-2.37;100.00;100659.34;5116249;27;19919;-71
2021/12/24 02:01:57;;;;;;;;;;;;;;;-3.05;100.00;100665.19;5134645;27;19911;-70
2021/12/24 02:04:25;;;;;;;;;;;;;;;-2.85;100.00;100651.84;5116502;27;20425;-71
2021/12/24 02:06:57;;;;;;;;;;;;;;;-2.92;100.00;100649.94;5116175;27;20350;-71
2021/12/24 02:09:23;;;;;;;;;;;;;;;-3.10;100.00;100654.22;5134470;27;20003;-71
2021/12/24 02:11:53;;;;;;;;;;;;;;;-2.62;100.00;100652.69;5116370;27;20314;-71
2021/12/24 02:14:21;;;;;;;;;;;;;;;-2.44;100.00;100655.81;5134545;27;20013;-71
2021/12/24 02:30:23;;;;;;;;;;;;;;;-2.77;100.00;100642.16;5134390;27;19961;-71
2021/12/24 02:32:48;;;;;;;;;;;;;;;-2.65;100.00;100640.13;5115851;27;20402;-71
2021/12/24 02:35:14;;;;;;;;;;;;;;;-2.75;100.00;100633.97;5133930;27;19912;-71
2021/12/24 02:37:39;;;;;;;;;;;;;;;-2.81;100.00;100632.91;5115454;27;19911;-71
2021/12/24 02:40:06;;;;;;;;;;;;;;;-2.82;100.00;100634.56;5115686;27;19922;-71
2021/12/24 02:42:34;;;;;;;;;;;;;;;-2.67;100.00;100629.25;5133863;27;19926;-71
2021/12/24 02:45:07;;;;;;;;;;;;;;;-2.65;100.00;100618.59;5133789;27;19911;-71
2021/12/24 02:47:42;;;;;;;;;;;;;;;-2.69;100.00;100618.41;5115533;27;20310;-71
2021/12/24 02:55:28;;;;;;;;;;;;;;;-2.80;100.00;100614.72;5133513;27;19960;-71
2021/12/24 02:57:53;;;;;;;;;;;;;;;-2.75;100.00;100616.56;5133368;27;19915;-72
2021/12/24 03:00:20;;;;;;;;;;;;;;;-3.10;100.00;100611.13;5115147;27;19918;-71
2021/12/24 03:02:47;;;;;;;;;;;;;;;-3.12;100.00;100606.09;5115113;27;19994;-71
2021/12/24 03:05:14;;;;;;;;;;;;;;;-2.57;100.00;100603.09;5114901;27;19937;-71
2021/12/24 03:07:43;;;;;;;;;;;;;;;-2.65;100.00;100591.22;5133185;27;20395;-71
2021/12/24 03:10:14;;;;;;;;;;;;;;;-2.78;100.00;100608.16;5133418;27;19960;-71
2021/12/24 03:12:43;;;;;;;;;;;;;;;-2.32;100.00;100603.97;5133308;27;19923;-70
2021/12/24 03:15:11;;;;;;;;;;;;;;;-2.64;100.00;100607.00;5114919;27;20322;-70
2021/12/24 03:17:37;;;;;;;;;;;;;;;-2.56;100.00;100610.59;5114947;27;19953;-71
2021/12/24 03:20:08;;;;;;;;;;;;;;;-2.47;100.00;100607.56;5114596;27;19915;-71
2021/12/24 03:25:07;;;;;;;;;;;;;;;-2.86;100.00;100597.09;5133197;27;19960;-71
2021/12/24 03:27:36;;;;;;;;;;;;;;;-2.50;100.00;100597.50;5114344;27;19915;-71
2021/12/24 03:30:03;;;;;;;;;;;;;;;-2.63;100.00;100585.47;5114415;27;19911;-70
2021/12/24 03:32:35;;;;;;;;;;;;;;;-2.91;100.00;100586.16;5133162;27;20243;-71
2021/12/24 03:35:01;;;;;;;;;;;;;;;-2.81;100.00;100580.69;5114387;27;19911;-70
2021/12/24 03:37:27;;;;;;;;;;;;;;;-2.63;100.00;100578.00;5132917;27;20270;-70
2021/12/24 03:39:53;;;;;;;;;;;;;;;-2.94;100.00;100595.97;5113350;27;20418;-70
2021/12/24 03:42:19;;;;;;;;;;;;;;;-2.86;100.00;100597.09;5132754;27;19923;-71
2021/12/24 03:44:58;;;;;;;;;;;;;;;-2.97;100.00;100578.47;5114339;27;19912;-71
2021/12/24 03:47:27;;;;;;;;;;;;;;;-2.88;100.00;100593.69;5132830;27;19978;-71
2021/12/24 03:49:58;;;;;;;;;;;;;;;-2.45;100.00;100589.41;5132599;27;19950;-71
2021/12/24 03:54:57;;;;;;;;;;;;;;;-2.81;100.00;100588.13;5132626;27;19911;-71
2021/12/24 03:57:40;;;;;;;;;;;;;;;-3.03;100.00;100589.03;5114015;27;19915;-70
2021/12/24 04:00:11;;;;;;;;;;;;;;;-2.63;100.00;100590.44;5092128;28;20368;-70
2021/12/24 04:02:39;;;;;;;;;;;;;;;-2.59;100.00;100577.31;5112022;28;20463;-71
2021/12/24 04:05:07;;;;;;;;;;;;;;;-2.46;100.00;100569.44;5111860;28;20345;-70
2021/12/24 04:07:32;;;;;;;;;;;;;;;-2.79;100.00;100561.69;5093482;28;19924;-70
2021/12/24 04:10:07;;;;;;;;;;;;;;;-2.77;100.00;100565.91;5112027;28;19974;-71
2021/12/24 04:12:33;;;;;;;;;;;;;;;-2.65;100.00;100558.88;5111807;28;20019;-71
2021/12/24 04:15:00;;;;;;;;;;;;;;;-3.05;100.00;100560.78;5111735;28;19912;-71
2021/12/24 04:17:30;;;;;;;;;;;;;;;-3.01;100.00;100557.59;5093603;28;19916;-71
2021/12/24 04:25:31;;;;;;;;;;;;;;;-2.87;100.00;100556.44;5111962;28;20311;-71
2021/12/24 04:28:02;;;;;;;;;;;;;;;-2.95;100.00;100567.75;5093549;28;19931;-70
2021/12/24 04:30:38;;;;;;;;;;;;;;;-2.71;100.00;100565.28;5111516;28;19915;-70
2021/12/24 04:33:16;;;;;;;;;;;;;;;-3.02;100.00;100565.00;5093162;28;19919;-70
2021/12/24 04:35:56;;;;;;;;;;;;;;;-2.74;100.00;100560.22;5093359;28;20327;-70
2021/12/24 04:51:55;;;;;;;;;;;;;;;-2.86;100.00;100555.66;5113919;28;19922;-70
2021/12/24 05:10:23;;;;;;;;;;;;;;;-2.92;100.00;100562.06;5115306;28;19912;-70
2021/12/24 05:12:49;;;;;;;;;;;;;;;-2.99;100.00;100556.03;5115038;28;20452;-71
2021/12/24 05:15:15;;;;;;;;;;;;;;;-3.25;100.00;100554.28;5114938;28;19912;-71
2021/12/24 05:22:55;;;;;;;;;;;;;;;-2.99;100.00;100546.06;5104982;28;20429;-70
2021/12/24 05:25:28;;;;;;;;;;;;;;;-3.05;100.00;100543.38;5076161;28;19916;-70
2021/12/24 05:27:55;;;;;;;;;;;;;;;-3.06;100.00;100543.31;5094358;28;20285;-69
2021/12/24 05:30:22;;;;;;;;;;;;;;;-2.65;100.00;100546.44;5092810;28;19955;-70
2021/12/24 05:32:48;;;;;;;;;;;;;;;-2.88;100.00;100546.47;5094345;28;19955;-71
2021/12/24 05:35:14;;;;;;;;;;;;;;;-2.85;100.00;100544.91;5075802;28;19959;-71
2021/12/24 05:37:43;;;;;;;;;;;;;;;-2.75;100.00;100536.13;5094105;28;20295;-70
2021/12/24 05:40:09;;;;;;;;;;;;;;;-2.95;100.00;100534.63;5092938;28;19962;-72
2021/12/24 05:42:35;;;;;;;;;;;;;;;-2.92;100.00;100527.25;5093899;28;19928;-71
2021/12/24 05:45:05;;;;;;;;;;;;;;;-2.96;100.00;100530.41;5092587;28;19912;-71
2021/12/24 05:47:32;;;;;;;;;;;;;;;-3.36;100.00;100527.31;5094252;28;20437;-71
2021/12/24 05:49:58;;;;;;;;;;;;;;;-3.31;100.00;100531.69;5093887;28;19919;-71
2021/12/24 05:52:26;;;;;;;;;;;;;;;-3.58;100.00;100534.00;5094034;28;19916;-71
2021/12/24 05:54:55;;;;;;;;;;;;;;;-2.92;100.00;100532.22;5092390;28;19912;-71
2021/12/24 05:57:28;;;;;;;;;;;;;;;-2.93;100.00;100533.84;5092478;28;19912;-71
2021/12/24 06:00:05;;;;;;;;;;;;;;;-2.92;100.00;100528.09;5114315;28;20389;-73
2021/12/24 06:02:46;;;;;;;;;;;;;;;-2.86;100.00;100540.75;5095419;28;19934;-73
2021/12/24 06:05:12;;;;;;;;;;;;;;;-2.74;100.00;100532.84;5114432;28;20308;-72
2021/12/24 06:07:39;;;;;;;;;;;;;;;-2.92;100.00;100542.16;5114092;28;19918;-71
2021/12/24 06:10:05;;;;;;;;;;;;;;;-2.77;100.00;100535.22;5114240;28;19916;-71
2021/12/24 06:12:32;;;;;;;;;;;;;;;-2.99;100.00;100525.38;5114060;28;20383;-71
2021/12/24 06:15:04;;;;;;;;;;;;;;;-2.86;100.00;100525.84;5113973;28;19912;-71
2021/12/24 06:17:36;;;;;;;;;;;;;;;-2.65;100.00;100534.00;5095874;28;20006;-72
2021/12/24 06:20:05;;;;;;;;;;;;;;;-2.90;100.00;100533.13;5095360;28;19923;-71
2021/12/24 06:22:32;;;;;;;;;;;;;;;-2.72;100.00;100537.09;5113823;28;20314;-72
2021/12/24 06:24:59;;;;;;;;;;;;;;;-2.72;100.00;100538.72;5114138;28;20383;-73
2021/12/24 06:27:31;;;;;;;;;;;;;;;-2.62;100.00;100540.72;5113741;28;19912;-72
2021/12/24 06:30:08;;;;;;;;;;;;;;;-2.53;100.00;100531.06;5114011;28;20034;-72
2021/12/24 06:32:36;;;;;;;;;;;;;;;-3.01;100.00;100530.25;5113687;28;19915;-72
2021/12/24 06:35:08;;;;;;;;;;;;;;;-3.11;100.00;100525.75;5113411;28;19919;-72
2021/12/24 06:37:37;;;;;;;;;;;;;;;-2.99;100.00;100516.25;5095003;28;20321;-71
2021/12/24 06:40:05;;;;;;;;;;;;;;;-2.92;100.00;100524.75;5094406;28;19920;-72
2021/12/24 06:42:35;;;;;;;;;;;;;;;-2.85;100.00;100531.63;5112548;28;19982;-72
2021/12/24 06:45:04;;;;;;;;;;;;;;;-2.89;100.00;100524.84;5094280;28;19912;-71
2021/12/24 06:47:38;;;;;;;;;;;;;;;-3.09;100.00;100511.75;5112988;28;19919;-73
2021/12/24 06:50:04;;;;;;;;;;;;;;;-2.75;100.00;100508.75;5112565;28;19912;-74
2021/12/24 06:52:40;;;;;;;;;;;;;;;-2.44;100.00;100504.00;5094232;28;19911;-73
2021/12/24 06:55:06;;;;;;;;;;;;;;;-2.52;100.00;100497.09;5093983;28;19911;-73
2021/12/24 06:57:32;;;;;;;;;;;;;;;-2.70;100.00;100500.69;5111141;28;20424;-70
2021/12/24 06:59:58;;;;;;;;;;;;;;;-2.72;100.00;100503.91;5089815;28;19919;-69
2021/12/24 07:02:25;;;;;;;;;;;;;;;-2.41;100.00;100501.59;5092264;28;19919;-69
2021/12/24 07:04:50;;;;;;;;;;;;;;;-2.84;100.00;100510.94;5092300;28;20016;-70
2021/12/24 07:07:18;;;;;;;;;;;;;;;-2.61;100.00;100514.22;5110895;28;19943;-70
2021/12/24 07:09:46;;;;;;;;;;;;;;;-2.39;100.00;100519.06;5110200;28;20024;-70
2021/12/24 07:12:12;;;;;;;;;;;;;;;-2.71;100.00;100526.34;5111353;28;20328;-70
2021/12/24 07:14:40;;;;;;;;;;;;;;;-2.28;100.00;100517.78;5092256;28;19911;-71
2021/12/24 07:17:06;;;;;;;;;;;;;;;-2.97;100.00;100518.81;5093146;28;20367;-71
2021/12/24 07:19:34;;;;;;;;;;;;;;;-1.44;100.00;100512.03;5111540;28;19919;-74
2021/12/24 07:22:07;;;;;;;;;;;;;;;-2.26;100.00;100536.09;5111168;28;20104;-68
2021/12/24 07:24:34;;;;;;;;;;;;;;;-2.28;100.00;100547.66;5111185;28;20030;-73
2021/12/24 07:27:01;;;;;;;;;;;;;;;-2.29;100.00;100539.34;5091180;28;19912;-71
2021/12/24 07:29:27;;;;;;;;;;;;;;;-2.04;100.00;100538.47;5109792;28;19998;-71
2021/12/24 07:31:58;;;;;;;;;;;;;;;-2.44;100.00;100530.53;5110683;28;19920;-70
2021/12/24 07:34:25;;;;;;;;;;;;;;;-2.05;100.00;100515.22;5091840;28;20280;-72
2021/12/24 07:36:53;;;;;;;;;;;;;;;-1.33;100.00;100514.03;5110749;28;19911;-72
2021/12/24 07:39:22;;;;;;;;;;;;;;;-1.56;100.00;100515.03;5111068;28;19952;-71
2021/12/24 07:41:49;;;;;;;;;;;;;;;-1.32;100.00;100510.75;5110603;28;20032;-71
2021/12/24 07:44:18;;;;;;;;;;;;;;;-1.52;100.00;100491.03;5109638;28;19911;-72
2021/12/24 07:46:49;;;;;;;;;;;;;;;-1.00;100.00;100486.66;5110309;28;20419;-71
2021/12/24 07:49:29;;;;;;;;;;;;;;;-0.35;100.00;100494.16;5091347;28;19988;-71
2021/12/24 07:54:27;;;;;;;;;;;;;;;-0.97;100.00;100489.25;5110465;28;19922;-72
2021/12/24 07:56:52;;;;;;;;;;;;;;;-1.41;100.00;100492.19;5092481;28;19951;-70
2021/12/24 07:59:20;;;;;;;;;;;;;;;-2.00;100.00;100496.28;5110852;28;19916;-71
2021/12/24 08:01:47;;;;;;;;;;;;;;;-1.98;100.00;100487.19;5110947;28;19985;-70
2021/12/24 08:04:16;;;;;;;;;;;;;;;-1.53;100.00;100481.88;5111062;28;19915;-71
2021/12/24 08:06:42;;;;;;;;;;;;;;;-1.65;100.00;100487.34;5092694;28;19916;-70
2021/12/24 08:09:08;;;;;;;;;;;;;;;-0.92;100.00;100473.59;5092573;28;19915;-70
2021/12/24 08:11:35;;;;;;;;;;;;;;;-0.51;100.00;100464.63;5111431;28;20379;-70
2021/12/24 08:14:01;;;;;;;;;;;;;;;-0.64;100.00;100476.78;5092176;28;19920;-71
2021/12/24 08:16:29;;;;;;;;;;;;;;;-0.68;100.00;100468.38;5110853;28;19983;-71
2021/12/24 08:18:59;;;;;;;;;;;;;;;-1.56;100.00;100464.31;5110853;28;19918;-70
2021/12/24 08:21:26;;;;;;;;;;;;;;;-0.76;100.00;100456.50;5092409;28;20010;-71
2021/12/24 08:23:52;;;;;;;;;;;;;;;-0.66;100.00;100450.94;5110874;28;20376;-70
2021/12/24 08:26:23;;;;;;;;;;;;;;;-0.83;100.00;100448.00;5094022;28;19934;-70
2021/12/24 08:28:50;;;;;;;;;;;;;;;-1.26;100.00;100455.19;5114971;28;20010;-70
2021/12/24 08:31:16;;;;;;;;;;;;;;;-0.70;100.00;100436.69;5115011;28;19980;-71
2021/12/24 08:33:45;;;;;;;;;;;;;;;-0.55;100.00;100410.44;5096371;28;19915;-71
2021/12/24 08:36:12;;;;;;;;;;;;;;;-0.09;100.00;100394.84;5096492;28;19979;-70
2021/12/24 08:38:39;;;;;;;;;;;;;;;-0.70;100.00;100405.09;5114931;28;19918;-71
2021/12/24 08:41:07;;;;;;;;;;;;;;;-1.00;100.00;100419.31;5114984;28;20453;-71
2021/12/24 08:43:34;;;;;;;;;;;;;;;-0.99;100.00;100418.53;5114606;28;20413;-70
2021/12/24 08:46:01;;;;;;;;;;;;;;;-0.49;100.00;100417.22;5096583;28;20393;-71
2021/12/24 08:48:27;;;;;;;;;;;;;;;-0.03;100.00;100407.47;5114469;28;19964;-70
2021/12/24 08:50:53;;;;;;;;;;;;;;;-0.51;100.00;100407.22;5096091;28;19920;-71
2021/12/24 08:53:19;;;;;;;;;;;;;;;-0.36;100.00;100397.59;5114462;28;19911;-70
2021/12/24 08:55:46;;;;;;;;;;;;;;;-0.21;100.00;100397.91;5095747;28;19912;-70
2021/12/24 08:58:11;;;;;;;;;;;;;;;0.11;100.00;100391.09;5114849;27;19923;-71
2021/12/24 09:00:37;;;;;;;;;;;;;;;0.07;100.00;100393.50;5106817;28;19912;-72
2021/12/24 09:03:07;;;;;;;;;;;;;;;0.44;100.00;100398.41;5088458;28;19927;-72
2021/12/24 09:05:34;;;;;;;;;;;;;;;0.05;100.00;100392.63;5098722;28;19957;-73
2021/12/24 09:08:14;;;;;;;;;;;;;;;0.27;100.00;100377.25;5107025;28;20436;-73
2021/12/24 09:10:41;;;;;;;;;;;;;;;-0.18;100.00;100369.69;5096166;28;19959;-71
2021/12/24 09:13:07;;;;;;;;;;;;;;;-0.37;100.00;100373.41;5112592;28;19935;-71
2021/12/24 09:15:37;;;;;;;;;;;;;;;0.11;100.00;100357.75;5114192;28;20353;-75
2021/12/24 09:18:04;;;;;;;;;;;;;;;0.43;100.00;100349.22;5114285;28;19916;-70
2021/12/24 09:20:36;;;;;;;;;;;;;;;0.06;100.00;100355.16;5104106;28;19916;-71
2021/12/24 09:23:04;;;;;;;;;;;;;;;0.02;100.00;100355.09;5092232;28;19940;-72
2021/12/24 09:25:35;;;;;;;;;;;;;;;-0.06;100.00;100347.44;5113845;28;19958;-72
2021/12/24 09:28:00;;;;;;;;;;;;;;;0.35;100.00;100344.09;5113020;28;19966;-68
2021/12/24 09:30:28;;;;;;;;;;;;;;;0.31;100.00;100342.34;5113537;28;20306;-69
2021/12/24 09:33:04;;;;;;;;;;;;;;;0.48;100.00;100346.00;5113691;28;19922;-74
2021/12/24 09:35:38;;;;;;;;;;;;;;;0.24;100.00;100333.03;5113476;28;19911;-76
2021/12/24 09:38:04;;;;;;;;;;;;;;;0.63;100.00;100325.44;5099724;28;20007;-74
2021/12/24 09:40:36;;;;;;;;;;;;;;;0.51;100.00;100327.72;5086264;28;20010;-73
2021/12/24 09:43:22;;;;;;;;;;;;;;;0.55;100.00;100317.78;5113568;28;20022;-75
2021/12/24 09:45:54;;;;;;;;;;;;;;;0.50;100.00;100306.84;5113902;28;19911;-73
2021/12/24 09:48:22;;;;;;;;;;;;;;;0.58;100.00;100299.47;5113935;28;19916;-72
2021/12/24 09:50:48;;;;;;;;;;;;;;;0.62;100.00;100291.22;5112809;28;20015;-72
2021/12/24 09:53:18;;;;;;;;;;;;;;;0.99;100.00;100292.66;5095307;28;19919;-73
2021/12/24 09:55:44;;;;;;;;;;;;;;;3.80;100.00;100269.47;5094905;28;20450;-71
2021/12/24 09:58:09;;;;;;;;;;;;;;;1.16;100.00;100287.09;5094101;28;20014;-71
2021/12/24 10:00:34;;;;;;;;;;;;;;;1.00;100.00;100269.31;5110710;28;19955;-73
2021/12/24 10:03:02;;;;;;;;;;;;;;;1.17;100.00;100271.22;5095235;28;20395;-73
2021/12/24 10:05:28;;;;;;;;;;;;;;;1.33;100.00;100267.28;5112299;28;19922;-70
2021/12/24 10:08:01;;;;;;;;;;;;;;;1.55;100.00;100254.22;5112693;28;19911;-71
2021/12/24 10:10:29;;;;;;;;;;;;;;;1.48;100.00;100244.97;5113238;28;20002;-75
2021/12/24 10:12:58;;;;;;;;;;;;;;;1.39;100.00;100238.16;5112150;28;19980;-71
2021/12/24 10:15:25;;;;;;;;;;;;;;;2.69;100.00;100214.44;5112759;28;19915;-72
2021/12/24 10:18:05;;;;;;;;;;;;;;;1.65;100.00;100221.78;5113392;28;19911;-74
2021/12/24 10:20:32;;;;;;;;;;;;;;;1.55;100.00;100212.47;5112638;28;19918;-72
2021/12/24 10:22:59;;;;;;;;;;;;;;;1.70;100.00;100205.13;5113262;28;19975;-71
2021/12/24 10:25:30;;;;;;;;;;;;;;;1.72;100.00;100200.97;5112718;28;19912;-70
2021/12/24 10:28:08;;;;;;;;;;;;;;;1.56;100.00;100191.63;5111626;28;19935;-71
2021/12/24 10:30:34;;;;;;;;;;;;;;;1.64;100.00;100187.53;5093971;28;20020;-71
2021/12/24 10:33:14;;;;;;;;;;;;;;;1.58;100.00;100192.50;5094647;28;20371;-73
2021/12/24 10:35:39;;;;;;;;;;;;;;;2.09;100.00;100193.84;5111822;28;19912;-72
2021/12/24 10:38:28;;;;;;;;;;;;;;;1.99;100.00;100192.06;5094397;28;20009;-72
2021/12/24 10:40:55;;;;;;;;;;;;;;;2.59;100.00;100185.09;5094183;28;19916;-73
2021/12/24 10:43:40;;;;;;;;;;;;;;;2.31;100.00;100190.69;5112899;28;19920;-73
2021/12/24 10:46:18;;;;;;;;;;;;;;;2.37;100.00;100201.63;5094292;28;19951;-76
2021/12/24 10:55:10;;;;;;;;;;;;;;;2.44;100.00;100164.88;5112367;28;19919;-74
2021/12/24 10:57:40;;;;;;;;;;;;;;;2.32;100.00;100158.09;5090110;28;19993;-74
2021/12/24 11:00:19;;;;;;;;;;;;;;;2.69;100.00;100149.19;5091532;28;19920;-73
2021/12/24 11:02:54;;;;;;;;;;;;;;;2.89;100.00;100140.09;5091878;28;19912;-72
2021/12/24 11:05:24;;;;;;;;;;;;;;;2.95;100.00;100136.78;5090784;28;19912;-72
2021/12/24 11:07:51;;;;;;;;;;;;;;;2.78;100.00;100129.16;5091631;28;20414;-73
2021/12/24 11:10:22;;;;;;;;;;;;;;;2.99;100.00;100115.88;5091986;28;19916;-72
2021/12/24 11:13:10;;;;;;;;;;;;;;;3.13;100.00;100120.09;5091041;28;20364;-72
2021/12/24 11:16:03;;;;;;;;;;;;;;;3.27;100.00;100117.66;5091554;28;19912;-73
2021/12/24 11:18:43;;;;;;;;;;;;;;;3.65;100.00;100115.25;5087505;28;19954;-74
2021/12/24 11:21:17;;;;;;;;;;;;;;;3.53;100.00;100119.41;5073543;28;20382;-71
2021/12/24 11:23:49;;;;;;;;;;;;;;;3.68;100.00;100122.81;5091287;28;19961;-71
2021/12/24 11:26:23;;;;;;;;;;;;;;;3.74;100.00;100115.28;5090139;28;19951;-71
2021/12/24 11:28:50;;;;;;;;;;;;;;;3.74;100.00;100106.06;5090992;28;20027;-69
2021/12/24 11:31:18;;;;;;;;;;;;;;;3.93;100.00;100099.34;5090635;28;19912;-71
2021/12/24 11:33:47;;;;;;;;;;;;;;;3.94;100.00;100096.03;5090014;28;19928;-71
2021/12/24 11:36:15;;;;;;;;;;;;;;;4.08;100.00;100086.81;5090430;28;19912;-70
2021/12/24 11:38:43;;;;;;;;;;;;;;;4.47;100.00;100070.81;5090907;28;19993;-73
2021/12/24 11:41:12;;;;;;;;;;;;;;;4.39;100.00;100073.34;5090484;28;19963;-69
2021/12/24 11:43:39;;;;;;;;;;;;;;;4.54;100.00;100072.47;5072503;28;19916;-70
2021/12/24 11:46:08;;;;;;;;;;;;;;;4.48;100.00;100083.38;5090400;28;20403;-73
2021/12/24 11:48:35;;;;;;;;;;;;;;;4.72;100.00;100080.81;5090288;28;19912;-71
2021/12/24 11:51:03;;;;;;;;;;;;;;;4.68;100.00;100080.81;5091176;28;19923;-70
2021/12/24 11:53:30;;;;;;;;;;;;;;;4.70;100.00;100064.88;5090611;28;19923;-70
2021/12/24 11:56:00;;;;;;;;;;;;;;;4.57;100.00;100065.75;5072342;28;19912;-71
2021/12/24 11:58:25;;;;;;;;;;;;;;;5.20;96.67;100047.88;5097246;28;19916;-71
2021/12/24 12:00:54;;;;;;;;;;;;;;;5.36;94.40;100052.81;5110091;28;19912;-73
2021/12/24 12:03:34;;;;;;;;;;;;;;;5.55;91.34;100045.13;5108708;28;19916;-71
2021/12/24 12:06:03;;;;;;;;;;;;;;;5.65;78.90;100041.72;5110656;28;20393;-71
2021/12/24 12:08:40;;;;;;;;;;;;;;;5.65;75.51;100035.81;5111077;28;20014;-73
2021/12/24 12:11:06;;;;;;;;;;;;;;;5.79;75.25;100037.41;5110513;28;20376;-71
2021/12/24 12:13:36;;;;;;;;;;;;;;;5.85;73.49;100046.63;5111031;28;19946;-72
2021/12/24 12:16:08;;;;;;;;;;;;;;;5.90;72.31;100052.50;5110879;28;19959;-73
2021/12/24 12:19:03;;;;;;;;;;;;;;;5.78;74.74;100045.84;5110434;28;19922;-74
2021/12/24 12:21:42;;;;;;;;;;;;;;;5.95;75.03;100043.19;5092620;28;19919;-71
2021/12/24 12:26:49;;;;;;;;;;;;;;;6.26;68.95;100036.19;5110745;28;19918;-71
2021/12/24 12:29:21;;;;;;;;;;;;;;;6.34;67.81;100029.38;5110861;28;19915;-75
2021/12/24 12:31:53;;;;;;;;;;;;;;;6.46;67.62;100029.22;5109926;28;20369;-73
2021/12/24 12:37:27;;;;;;;;;;;;;;;6.79;65.97;100019.56;5110629;28;19973;-72
2021/12/24 12:40:24;;;;;;;;;;;;;;;6.75;66.07;100010.38;5110367;28;20018;-75
2021/12/24 12:43:12;;;;;;;;;;;;;;;6.79;66.36;100017.03;5111044;28;19915;-75
2021/12/24 12:45:39;;;;;;;;;;;;;;;6.80;66.40;100018.72;5102599;28;20114;-74
2021/12/24 12:48:11;;;;;;;;;;;;;;;6.69;66.82;100007.09;5108329;28;19919;-75
2021/12/24 12:50:40;;;;;;;;;;;;;;;6.89;66.08;100000.09;5110482;28;20375;-70
2021/12/24 12:53:40;;;;;;;;;;;;;;;7.04;65.52;100004.94;5110120;28;19972;-71
2021/12/24 12:56:30;;;;;;;;;;;;;;;6.89;65.18;99997.59;5067266;28;19924;-75
2021/12/24 12:59:06;;;;;;;;;;;;;;;6.95;64.51;100008.41;5109727;28;19920;-75
2021/12/24 13:04:34;;;;;;;;;;;;;;;8.26;61.42;100004.72;5110780;28;19930;-71
2021/12/24 13:07:23;;;;;;;;;;;;;;;8.71;59.24;100003.84;5110436;28;19911;-79
2021/12/24 13:09:49;;;;;;;;;;;;;;;8.48;57.93;99998.38;5109795;28;20337;-71
2021/12/24 13:12:21;;;;;;;;;;;;;;;8.49;57.50;100000.91;5111469;28;19919;-71
2021/12/24 13:14:50;;;;;;;;;;;;;;;8.10;58.52;100008.38;5113901;28;19951;-72
2021/12/24 13:17:22;;;;;;;;;;;;;;;7.85;60.48;100008.78;5113008;28;19938;-72
2021/12/24 13:24:54;;;;;;;;;;;;;;;5.81;67.37;100012.16;5112978;28;19916;-72
2021/12/24 13:27:24;;;;;;;;;;;;;;;5.86;68.60;100001.22;5113770;28;19998;-70
2021/12/24 13:32:43;;;;;;;;;;;;;;;5.87;70.18;100007.09;5113970;28;20006;-72
2021/12/24 13:35:11;;;;;;;;;;;;;;;5.70;70.19;100003.84;5095791;28;19919;-74
2021/12/24 13:37:37;;;;;;;;;;;;;;;6.57;68.34;99997.13;5095300;28;19946;-70
2021/12/24 13:40:08;;;;;;;;;;;;;;;5.80;70.35;99990.31;5094654;28;19915;-69
2021/12/24 13:43:07;;;;;;;;;;;;;;;5.46;74.96;99983.88;5113212;28;19931;-71
2021/12/24 13:45:36;;;;;;;;;;;;;;;5.48;74.68;99993.09;5067410;28;19916;-70
2021/12/24 13:48:06;;;;;;;;;;;;;;;5.40;75.98;99991.47;5113313;28;20363;-72
2021/12/24 13:56:36;;;;;;;;;;;;;;;5.14;77.67;99968.97;5113216;28;20425;-71
2021/12/24 13:59:01;;;;;;;;;;;;;;;5.23;80.77;100002.50;5112672;28;20294;-70
2021/12/24 14:01:29;;;;;;;;;;;;;;;5.24;82.91;99995.78;5112600;28;20015;-69
2021/12/24 14:03:57;;;;;;;;;;;;;;;6.40;76.25;100001.53;5112852;28;19945;-70
2021/12/24 14:06:43;;;;;;;;;;;;;;;5.02;82.16;100001.78;5112312;28;19912;-70
2021/12/24 14:09:10;;;;;;;;;;;;;;;4.99;85.63;99997.59;5112229;28;19918;-69
2021/12/24 14:11:37;;;;;;;;;;;;;;;5.16;85.12;100003.41;5074492;28;20281;-70
2021/12/24 14:14:09;;;;;;;;;;;;;;;4.90;88.79;100011.91;5092064;28;19916;-70
2021/12/24 14:19:29;;;;;;;;;;;;;;;4.88;92.22;100006.06;5092738;28;20014;-72
2021/12/24 14:22:04;;;;;;;;;;;;;;;4.82;93.49;100008.59;5092689;28;19922;-73
2021/12/24 14:24:35;;;;;;;;;;;;;;;4.44;100.00;100001.19;5095961;28;19950;-72
2021/12/24 14:27:09;;;;;;;;;;;;;;;4.40;100.00;100009.59;5111952;28;20030;-71
2021/12/24 14:29:42;;;;;;;;;;;;;;;4.28;100.00;100009.63;5112325;28;19912;-71
2021/12/24 14:32:08;;;;;;;;;;;;;;;4.30;100.00;100011.28;5112146;28;20023;-71
2021/12/24 14:34:46;;;;;;;;;;;;;;;4.14;100.00;100007.13;5112467;28;20487;-71
2021/12/24 14:37:32;;;;;;;;;;;;;;;4.31;100.00;100014.66;5111902;28;19911;-70
2021/12/24 14:39:59;;;;;;;;;;;;;;;4.27;100.00;100008.81;5112284;28;20213;-69
2021/12/24 14:42:26;;;;;;;;;;;;;;;4.28;100.00;100014.66;5112243;28;20368;-70
2021/12/24 14:45:11;;;;;;;;;;;;;;;4.04;100.00;100020.56;5110706;28;19968;-74
2021/12/24 14:47:39;;;;;;;;;;;;;;;3.97;100.00;100020.56;5112202;28;19941;-70
2021/12/24 14:50:08;;;;;;;;;;;;;;;3.89;100.00;100014.72;5112036;28;19998;-70
2021/12/24 14:52:40;;;;;;;;;;;;;;;3.85;100.00;100013.88;5111434;28;19922;-71
2021/12/24 14:55:07;;;;;;;;;;;;;;;3.67;100.00;100010.53;5093252;28;19912;-70
2021/12/24 14:57:32;;;;;;;;;;;;;;;3.69;100.00;100012.22;5111595;28;19923;-70
2021/12/24 15:00:08;;;;;;;;;;;;;;;3.63;100.00;100011.34;5111155;28;19919;-70
2021/12/24 15:02:43;;;;;;;;;;;;;;;3.48;100.00;100010.53;5112027;28;19915;-74